sensor_id;sensor_type;location;lat;lon;timestamp;P1;durP1;ratioP1;P2;durP2;ratioP2
71296;SDS011;59082;50.658;4.608;2023-06-14T04:00:32;7.60;;;6.00;;
71296;SDS011;59082;50.658;4.608;2023-06-14T04:02:57;7.10;;;6.00;;
71296;SDS011;59082;50.658;4.608;2023-06-14T04:05:23;6.43;;;5.82;;
71296;SDS011;59082;50.658;4.608;2023-06-14T04:07:51;6.47;;;5.77;;
71296;SDS011;59082;50.658;4.608;2023-06-14T04:10:17;6.95;;;6.25;;
71296;SDS011;59082;50.658;4.608;2023-06-14T04:12:42;7.47;;;6.40;;
71296;SDS011;59082;50.658;4.608;2023-06-14T04:15:08;7.67;;;6.83;;
71296;SDS011;59082;50.658;4.608;2023-06-14T04:17:34;7.20;;;6.50;;
71296;SDS011;59082;50.658;4.608;2023-06-14T04:20:00;7.32;;;6.45;;
71296;SDS011;59082;50.658;4.608;2023-06-14T04:22:25;6.97;;;5.90;;
71296;SDS011;59082;50.658;4.608;2023-06-14T04:24:56;14.70;;;6.75;;
71296;SDS011;59082;50.658;4.608;2023-06-14T04:27:22;7.95;;;6.50;;
71296;SDS011;59082;50.658;4.608;2023-06-14T04:29:54;7.82;;;6.60;;
71296;SDS011;59082;50.658;4.608;2023-06-14T04:32:25;8.10;;;6.60;;
71296;SDS011;59082;50.658;4.608;2023-06-14T04:34:53;8.32;;;6.35;;
71296;SDS011;59082;50.658;4.608;2023-06-14T04:37:19;9.45;;;6.70;;
71296;SDS011;59082;50.658;4.608;2023-06-14T04:39:46;7.75;;;6.95;;
71296;SDS011;59082;50.658;4.608;2023-06-14T04:42:12;7.85;;;6.40;;
71296;SDS011;59082;50.658;4.608;2023-06-14T04:44:40;9.27;;;6.70;;
71296;SDS011;59082;50.658;4.608;2023-06-14T04:47:06;8.18;;;7.25;;
71296;SDS011;59082;50.658;4.608;2023-06-14T04:49:32;7.07;;;6.15;;
71296;SDS011;59082;50.658;4.608;2023-06-14T04:51:59;8.55;;;6.88;;
71296;SDS011;59082;50.658;4.608;2023-06-14T04:54:26;7.77;;;7.07;;
71296;SDS011;59082;50.658;4.608;2023-06-14T04:56:51;9.48;;;7.00;;
71296;SDS011;59082;50.658;4.608;2023-06-14T04:59:18;9.03;;;7.73;;
71296;SDS011;59082;50.658;4.608;2023-06-14T05:01:44;11.45;;;6.90;;
71296;SDS011;59082;50.658;4.608;2023-06-14T05:04:16;11.98;;;7.07;;
71296;SDS011;59082;50.658;4.608;2023-06-14T05:06:42;10.00;;;6.82;;
71296;SDS011;59082;50.658;4.608;2023-06-14T05:09:10;9.00;;;7.32;;
71296;SDS011;59082;50.658;4.608;2023-06-14T05:11:38;10.67;;;8.23;;
71296;SDS011;59082;50.658;4.608;2023-06-14T05:14:04;8.52;;;7.18;;
71296;SDS011;59082;50.658;4.608;2023-06-14T05:16:29;8.27;;;6.87;;
71296;SDS011;59082;50.658;4.608;2023-06-14T05:18:55;13.38;;;7.80;;
71296;SDS011;59082;50.658;4.608;2023-06-14T05:21:20;9.57;;;7.00;;
71296;SDS011;59082;50.658;4.608;2023-06-14T05:23:46;8.77;;;7.55;;
71296;SDS011;59082;50.658;4.608;2023-06-14T05:26:12;8.33;;;6.73;;
71296;SDS011;59082;50.658;4.608;2023-06-14T05:28:37;9.00;;;7.10;;
71296;SDS011;59082;50.658;4.608;2023-06-14T05:31:02;8.73;;;7.13;;
71296;SDS011;59082;50.658;4.608;2023-06-14T05:33:28;8.35;;;7.35;;
71296;SDS011;59082;50.658;4.608;2023-06-14T05:35:53;11.40;;;7.47;;
71296;SDS011;59082;50.658;4.608;2023-06-14T05:38:19;9.10;;;7.23;;
71296;SDS011;59082;50.658;4.608;2023-06-14T05:40:44;10.00;;;6.55;;
71296;SDS011;59082;50.658;4.608;2023-06-14T05:43:10;9.00;;;7.47;;
71296;SDS011;59082;50.658;4.608;2023-06-14T05:45:35;10.83;;;7.10;;
71296;SDS011;59082;50.658;4.608;2023-06-14T05:48:01;12.70;;;7.47;;
71296;SDS011;59082;50.658;4.608;2023-06-14T05:50:26;10.43;;;7.15;;
71296;SDS011;59082;50.658;4.608;2023-06-14T05:52:53;11.03;;;7.20;;
71296;SDS011;59082;50.658;4.608;2023-06-14T05:55:18;8.98;;;6.70;;
71296;SDS011;59082;50.658;4.608;2023-06-14T05:57:44;8.57;;;7.20;;
71296;SDS011;59082;50.658;4.608;2023-06-14T06:00:09;10.93;;;6.22;;
71296;SDS011;59082;50.658;4.608;2023-06-14T06:02:42;9.47;;;7.33;;
71296;SDS011;59082;50.658;4.608;2023-06-14T06:05:09;10.80;;;6.68;;
71296;SDS011;59082;50.658;4.608;2023-06-14T06:07:34;10.52;;;6.78;;
71296;SDS011;59082;50.658;4.608;2023-06-14T06:09:59;9.40;;;5.73;;
71296;SDS011;59082;50.658;4.608;2023-06-14T06:12:25;15.47;;;6.80;;
71296;SDS011;59082;50.658;4.608;2023-06-14T06:14:50;9.30;;;7.37;;
71296;SDS011;59082;50.658;4.608;2023-06-14T06:17:15;9.50;;;5.93;;
71296;SDS011;59082;50.658;4.608;2023-06-14T06:19:41;9.57;;;7.17;;
71296;SDS011;59082;50.658;4.608;2023-06-14T06:22:06;13.77;;;6.50;;
71296;SDS011;59082;50.658;4.608;2023-06-14T06:24:32;9.90;;;7.47;;
71296;SDS011;59082;50.658;4.608;2023-06-14T06:26:57;10.77;;;6.40;;
71296;SDS011;59082;50.658;4.608;2023-06-14T06:29:22;9.33;;;6.90;;
71296;SDS011;59082;50.658;4.608;2023-06-14T06:31:48;10.70;;;6.63;;
71296;SDS011;59082;50.658;4.608;2023-06-14T06:34:13;8.60;;;6.53;;
71296;SDS011;59082;50.658;4.608;2023-06-14T06:36:38;11.73;;;6.53;;
71296;SDS011;59082;50.658;4.608;2023-06-14T06:39:04;13.63;;;6.23;;
71296;SDS011;59082;50.658;4.608;2023-06-14T06:41:35;8.52;;;5.85;;
71296;SDS011;59082;50.658;4.608;2023-06-14T06:44:02;10.48;;;6.25;;
71296;SDS011;59082;50.658;4.608;2023-06-14T06:46:28;8.40;;;5.20;;
71296;SDS011;59082;50.658;4.608;2023-06-14T06:48:53;9.50;;;5.82;;
71296;SDS011;59082;50.658;4.608;2023-06-14T06:51:19;10.20;;;5.87;;
71296;SDS011;59082;50.658;4.608;2023-06-14T06:53:47;9.25;;;6.03;;
71296;SDS011;59082;50.658;4.608;2023-06-14T06:56:17;7.63;;;6.00;;
71296;SDS011;59082;50.658;4.608;2023-06-14T06:58:42;7.93;;;5.93;;
71296;SDS011;59082;50.658;4.608;2023-06-14T07:01:07;7.67;;;6.13;;
71296;SDS011;59082;50.658;4.608;2023-06-14T07:03:34;8.23;;;5.97;;
71296;SDS011;59082;50.658;4.608;2023-06-14T07:05:59;6.70;;;5.50;;
71296;SDS011;59082;50.658;4.608;2023-06-14T07:08:25;6.40;;;5.30;;
71296;SDS011;59082;50.658;4.608;2023-06-14T07:10:50;7.50;;;5.37;;
71296;SDS011;59082;50.658;4.608;2023-06-14T07:13:15;9.70;;;6.22;;
71296;SDS011;59082;50.658;4.608;2023-06-14T07:15:41;7.73;;;5.80;;
71296;SDS011;59082;50.658;4.608;2023-06-14T07:18:06;7.47;;;5.67;;
71296;SDS011;59082;50.658;4.608;2023-06-14T07:20:33;6.68;;;4.90;;
71296;SDS011;59082;50.658;4.608;2023-06-14T07:22:58;6.93;;;5.33;;
71296;SDS011;59082;50.658;4.608;2023-06-14T07:25:24;7.73;;;5.80;;
71296;SDS011;59082;50.658;4.608;2023-06-14T07:27:52;7.38;;;5.40;;
71296;SDS011;59082;50.658;4.608;2023-06-14T07:30:17;7.17;;;5.80;;
71296;SDS011;59082;50.658;4.608;2023-06-14T07:32:43;6.65;;;5.95;;
71296;SDS011;59082;50.658;4.608;2023-06-14T07:35:08;8.03;;;4.73;;
71296;SDS011;59082;50.658;4.608;2023-06-14T07:37:34;5.93;;;4.70;;
71296;SDS011;59082;50.658;4.608;2023-06-14T07:39:59;7.03;;;5.07;;
71296;SDS011;59082;50.658;4.608;2023-06-14T07:42:25;6.03;;;4.90;;
71296;SDS011;59082;50.658;4.608;2023-06-14T07:44:51;7.32;;;5.50;;
71296;SDS011;59082;50.658;4.608;2023-06-14T07:47:17;5.53;;;5.03;;
71296;SDS011;59082;50.658;4.608;2023-06-14T07:49:42;6.40;;;4.82;;
71296;SDS011;59082;50.658;4.608;2023-06-14T07:52:08;6.27;;;4.73;;
71296;SDS011;59082;50.658;4.608;2023-06-14T07:54:33;6.27;;;5.03;;
71296;SDS011;59082;50.658;4.608;2023-06-14T07:56:59;7.27;;;5.47;;
71296;SDS011;59082;50.658;4.608;2023-06-14T07:59:25;6.90;;;4.80;;
71296;SDS011;59082;50.658;4.608;2023-06-14T08:01:51;7.90;;;4.70;;
71296;SDS011;59082;50.658;4.608;2023-06-14T08:04:16;6.55;;;5.13;;
71296;SDS011;59082;50.658;4.608;2023-06-14T08:06:42;7.70;;;4.83;;
71296;SDS011;59082;50.658;4.608;2023-06-14T08:09:10;9.75;;;5.18;;
71296;SDS011;59082;50.658;4.608;2023-06-14T08:11:36;6.73;;;4.40;;
71296;SDS011;59082;50.658;4.608;2023-06-14T08:14:01;7.63;;;4.40;;
71296;SDS011;59082;50.658;4.608;2023-06-14T08:16:27;5.80;;;5.20;;
71296;SDS011;59082;50.658;4.608;2023-06-14T08:18:52;5.53;;;4.50;;
71296;SDS011;59082;50.658;4.608;2023-06-14T08:21:18;5.30;;;4.70;;
71296;SDS011;59082;50.658;4.608;2023-06-14T08:23:44;4.78;;;4.07;;
71296;SDS011;59082;50.658;4.608;2023-06-14T08:26:09;11.50;;;4.93;;
71296;SDS011;59082;50.658;4.608;2023-06-14T08:28:35;6.22;;;4.28;;
71296;SDS011;59082;50.658;4.608;2023-06-14T08:31:01;6.73;;;3.97;;
71296;SDS011;59082;50.658;4.608;2023-06-14T08:33:26;6.47;;;4.38;;
71296;SDS011;59082;50.658;4.608;2023-06-14T08:35:52;6.37;;;3.90;;
71296;SDS011;59082;50.658;4.608;2023-06-14T08:38:18;8.60;;;4.85;;
71296;SDS011;59082;50.658;4.608;2023-06-14T08:40:44;7.00;;;4.60;;
71296;SDS011;59082;50.658;4.608;2023-06-14T08:43:10;5.03;;;4.22;;
71296;SDS011;59082;50.658;4.608;2023-06-14T08:45:35;5.53;;;4.33;;
71296;SDS011;59082;50.658;4.608;2023-06-14T08:48:01;6.23;;;4.53;;
71296;SDS011;59082;50.658;4.608;2023-06-14T08:50:26;5.87;;;4.00;;
71296;SDS011;59082;50.658;4.608;2023-06-14T08:52:54;5.65;;;4.50;;
71296;SDS011;59082;50.658;4.608;2023-06-14T08:55:22;5.43;;;4.63;;
71296;SDS011;59082;50.658;4.608;2023-06-14T08:57:53;6.03;;;4.50;;
71296;SDS011;59082;50.658;4.608;2023-06-14T09:00:20;6.90;;;4.43;;
71296;SDS011;59082;50.658;4.608;2023-06-14T09:02:46;11.40;;;5.23;;
71296;SDS011;59082;50.658;4.608;2023-06-14T09:05:12;7.25;;;4.82;;
71296;SDS011;59082;50.658;4.608;2023-06-14T09:07:43;8.48;;;4.47;;
71296;SDS011;59082;50.658;4.608;2023-06-14T09:10:09;7.37;;;4.77;;
71296;SDS011;59082;50.658;4.608;2023-06-14T09:12:35;8.43;;;5.13;;
71296;SDS011;59082;50.658;4.608;2023-06-14T09:15:01;8.45;;;5.40;;
71296;SDS011;59082;50.658;4.608;2023-06-14T09:17:32;12.13;;;5.60;;
71296;SDS011;59082;50.658;4.608;2023-06-14T09:19:58;12.02;;;5.10;;
71296;SDS011;59082;50.658;4.608;2023-06-14T09:22:23;7.38;;;4.97;;
71296;SDS011;59082;50.658;4.608;2023-06-14T09:24:48;7.73;;;5.50;;
71296;SDS011;59082;50.658;4.608;2023-06-14T09:27:15;7.77;;;5.20;;
71296;SDS011;59082;50.658;4.608;2023-06-14T09:29:40;6.25;;;5.00;;
71296;SDS011;59082;50.658;4.608;2023-06-14T09:32:06;6.53;;;5.20;;
71296;SDS011;59082;50.658;4.608;2023-06-14T09:34:32;7.90;;;4.60;;
71296;SDS011;59082;50.658;4.608;2023-06-14T09:36:58;8.07;;;4.95;;
71296;SDS011;59082;50.658;4.608;2023-06-14T09:39:23;8.53;;;5.00;;
71296;SDS011;59082;50.658;4.608;2023-06-14T09:41:50;7.25;;;4.82;;
71296;SDS011;59082;50.658;4.608;2023-06-14T09:44:15;12.23;;;5.17;;
71296;SDS011;59082;50.658;4.608;2023-06-14T09:46:43;5.45;;;4.70;;
71296;SDS011;59082;50.658;4.608;2023-06-14T09:49:09;7.30;;;4.57;;
71296;SDS011;59082;50.658;4.608;2023-06-14T09:51:34;6.03;;;4.37;;
71296;SDS011;59082;50.658;4.608;2023-06-14T09:54:02;7.88;;;4.57;;
71296;SDS011;59082;50.658;4.608;2023-06-14T09:56:32;7.07;;;4.53;;
71296;SDS011;59082;50.658;4.608;2023-06-14T09:58:59;7.47;;;4.60;;
71296;SDS011;59082;50.658;4.608;2023-06-14T10:01:25;6.68;;;4.60;;
71296;SDS011;59082;50.658;4.608;2023-06-14T10:03:55;5.67;;;3.83;;
71296;SDS011;59082;50.658;4.608;2023-06-14T10:06:20;6.10;;;3.92;;
71296;SDS011;59082;50.658;4.608;2023-06-14T10:08:49;8.00;;;4.20;;
71296;SDS011;59082;50.658;4.608;2023-06-14T10:11:16;5.90;;;3.95;;
71296;SDS011;59082;50.658;4.608;2023-06-14T10:13:42;4.88;;;3.63;;
71296;SDS011;59082;50.658;4.608;2023-06-14T10:16:52;5.77;;;3.30;;
71296;SDS011;59082;50.658;4.608;2023-06-14T10:24:14;5.53;;;3.30;;
71296;SDS011;59082;50.658;4.608;2023-06-14T10:26:50;7.88;;;3.53;;
71296;SDS011;59082;50.658;4.608;2023-06-14T10:29:16;4.55;;;3.20;;
71296;SDS011;59082;50.658;4.608;2023-06-14T10:31:43;6.53;;;3.27;;
71296;SDS011;59082;50.658;4.608;2023-06-14T10:34:09;5.43;;;3.58;;
71296;SDS011;59082;50.658;4.608;2023-06-14T10:36:34;5.17;;;3.43;;
71296;SDS011;59082;50.658;4.608;2023-06-14T10:39:16;6.32;;;2.90;;
71296;SDS011;59082;50.658;4.608;2023-06-14T10:41:50;4.07;;;3.33;;
71296;SDS011;59082;50.658;4.608;2023-06-14T10:49:38;4.10;;;2.93;;
71296;SDS011;59082;50.658;4.608;2023-06-14T10:52:10;7.82;;;2.90;;
71296;SDS011;59082;50.658;4.608;2023-06-14T10:57:41;4.90;;;2.90;;
71296;SDS011;59082;50.658;4.608;2023-06-14T11:00:07;8.00;;;4.18;;
71296;SDS011;59082;50.658;4.608;2023-06-14T11:05:25;7.72;;;3.53;;
71296;SDS011;59082;50.658;4.608;2023-06-14T11:07:55;4.65;;;3.42;;
71296;SDS011;59082;50.658;4.608;2023-06-14T11:10:26;4.43;;;2.88;;
71296;SDS011;59082;50.658;4.608;2023-06-14T11:12:54;4.35;;;2.70;;
71296;SDS011;59082;50.658;4.608;2023-06-14T11:15:20;7.67;;;2.90;;
71296;SDS011;59082;50.658;4.608;2023-06-14T11:17:51;7.53;;;3.15;;
71296;SDS011;59082;50.658;4.608;2023-06-14T11:20:18;4.97;;;2.70;;
71296;SDS011;59082;50.658;4.608;2023-06-14T11:22:44;6.50;;;2.70;;
71296;SDS011;59082;50.658;4.608;2023-06-14T11:25:10;6.35;;;3.30;;
71296;SDS011;59082;50.658;4.608;2023-06-14T11:27:36;5.55;;;3.17;;
71296;SDS011;59082;50.658;4.608;2023-06-14T11:30:02;4.47;;;3.30;;
71296;SDS011;59082;50.658;4.608;2023-06-14T11:32:27;7.07;;;3.10;;
71296;SDS011;59082;50.658;4.608;2023-06-14T11:34:53;5.10;;;3.08;;
71296;SDS011;59082;50.658;4.608;2023-06-14T11:37:18;9.23;;;3.30;;
71296;SDS011;59082;50.658;4.608;2023-06-14T11:39:44;6.40;;;3.47;;
71296;SDS011;59082;50.658;4.608;2023-06-14T11:42:14;6.60;;;3.27;;
71296;SDS011;59082;50.658;4.608;2023-06-14T11:44:40;7.93;;;2.97;;
71296;SDS011;59082;50.658;4.608;2023-06-14T11:47:06;6.03;;;3.00;;
71296;SDS011;59082;50.658;4.608;2023-06-14T11:49:35;4.15;;;3.03;;
71296;SDS011;59082;50.658;4.608;2023-06-14T11:52:00;5.30;;;2.78;;
71296;SDS011;59082;50.658;4.608;2023-06-14T11:54:26;3.60;;;2.30;;
71296;SDS011;59082;50.658;4.608;2023-06-14T11:56:51;4.03;;;3.07;;
71296;SDS011;59082;50.658;4.608;2023-06-14T11:59:16;6.10;;;2.80;;
71296;SDS011;59082;50.658;4.608;2023-06-14T12:01:42;5.65;;;2.42;;
71296;SDS011;59082;50.658;4.608;2023-06-14T12:04:08;8.07;;;2.63;;
71296;SDS011;59082;50.658;4.608;2023-06-14T12:06:33;4.40;;;2.88;;
71296;SDS011;59082;50.658;4.608;2023-06-14T12:09:04;6.47;;;2.80;;
71296;SDS011;59082;50.658;4.608;2023-06-14T12:11:34;4.15;;;2.63;;
71296;SDS011;59082;50.658;4.608;2023-06-14T12:14:00;3.95;;;2.40;;
71296;SDS011;59082;50.658;4.608;2023-06-14T12:16:30;7.43;;;2.75;;
71296;SDS011;59082;50.658;4.608;2023-06-14T12:18:56;4.80;;;2.53;;
71296;SDS011;59082;50.658;4.608;2023-06-14T12:21:25;4.47;;;2.30;;
71296;SDS011;59082;50.658;4.608;2023-06-14T12:23:53;7.57;;;2.90;;
71296;SDS011;59082;50.658;4.608;2023-06-14T12:26:19;6.30;;;2.50;;
71296;SDS011;59082;50.658;4.608;2023-06-14T12:28:45;3.93;;;2.40;;
71296;SDS011;59082;50.658;4.608;2023-06-14T12:31:10;6.00;;;2.30;;
71296;SDS011;59082;50.658;4.608;2023-06-14T12:33:37;6.82;;;2.22;;
71296;SDS011;59082;50.658;4.608;2023-06-14T12:36:06;6.80;;;2.63;;
71296;SDS011;59082;50.658;4.608;2023-06-14T12:38:35;3.92;;;2.40;;
71296;SDS011;59082;50.658;4.608;2023-06-14T12:41:00;6.28;;;2.47;;
71296;SDS011;59082;50.658;4.608;2023-06-14T12:43:26;4.20;;;2.50;;
71296;SDS011;59082;50.658;4.608;2023-06-14T12:45:51;3.90;;;2.30;;
71296;SDS011;59082;50.658;4.608;2023-06-14T12:48:17;5.77;;;2.67;;
71296;SDS011;59082;50.658;4.608;2023-06-14T12:50:43;4.07;;;2.30;;
71296;SDS011;59082;50.658;4.608;2023-06-14T12:53:09;8.07;;;2.67;;
71296;SDS011;59082;50.658;4.608;2023-06-14T12:55:34;4.30;;;2.03;;
71296;SDS011;59082;50.658;4.608;2023-06-14T12:58:00;2.97;;;2.38;;
71296;SDS011;59082;50.658;4.608;2023-06-14T13:00:25;4.77;;;2.57;;
71296;SDS011;59082;50.658;4.608;2023-06-14T13:02:51;5.38;;;2.10;;
71296;SDS011;59082;50.658;4.608;2023-06-14T13:05:17;4.70;;;2.13;;
71296;SDS011;59082;50.658;4.608;2023-06-14T13:07:42;4.55;;;2.30;;
71296;SDS011;59082;50.658;4.608;2023-06-14T13:10:08;3.33;;;2.03;;
71296;SDS011;59082;50.658;4.608;2023-06-14T13:12:33;5.40;;;2.30;;
71296;SDS011;59082;50.658;4.608;2023-06-14T13:14:58;4.67;;;2.23;;
71296;SDS011;59082;50.658;4.608;2023-06-14T13:17:24;4.32;;;2.00;;
71296;SDS011;59082;50.658;4.608;2023-06-14T13:19:49;4.33;;;2.10;;
71296;SDS011;59082;50.658;4.608;2023-06-14T13:22:15;4.93;;;1.90;;
71296;SDS011;59082;50.658;4.608;2023-06-14T13:24:40;5.43;;;2.20;;
71296;SDS011;59082;50.658;4.608;2023-06-14T13:27:06;2.73;;;1.80;;
71296;SDS011;59082;50.658;4.608;2023-06-14T13:29:31;4.17;;;2.27;;
71296;SDS011;59082;50.658;4.608;2023-06-14T13:31:58;3.92;;;1.85;;
71296;SDS011;59082;50.658;4.608;2023-06-14T13:34:24;4.53;;;2.00;;
71296;SDS011;59082;50.658;4.608;2023-06-14T13:36:49;3.53;;;1.30;;
71296;SDS011;59082;50.658;4.608;2023-06-14T13:39:15;2.97;;;1.40;;
71296;SDS011;59082;50.658;4.608;2023-06-14T13:41:40;3.65;;;1.73;;
71296;SDS011;59082;50.658;4.608;2023-06-14T13:44:06;3.13;;;1.50;;
71296;SDS011;59082;50.658;4.608;2023-06-14T13:46:31;2.80;;;1.40;;
71296;SDS011;59082;50.658;4.608;2023-06-14T13:48:57;1.73;;;1.30;;
71296;SDS011;59082;50.658;4.608;2023-06-14T13:51:23;6.13;;;1.80;;
71296;SDS011;59082;50.658;4.608;2023-06-14T13:53:49;2.70;;;1.33;;
71296;SDS011;59082;50.658;4.608;2023-06-14T13:56:14;2.45;;;1.10;;
71296;SDS011;59082;50.658;4.608;2023-06-14T13:58:40;2.90;;;1.10;;
71296;SDS011;59082;50.658;4.608;2023-06-14T14:01:05;3.83;;;1.30;;
71296;SDS011;59082;50.658;4.608;2023-06-14T14:03:31;4.97;;;1.20;;
71296;SDS011;59082;50.658;4.608;2023-06-14T14:05:57;2.20;;;1.13;;
71296;SDS011;59082;50.658;4.608;2023-06-14T14:08:22;2.70;;;0.63;;
71296;SDS011;59082;50.658;4.608;2023-06-14T14:10:47;2.43;;;0.63;;
71296;SDS011;59082;50.658;4.608;2023-06-14T14:13:13;3.07;;;0.73;;
71296;SDS011;59082;50.658;4.608;2023-06-14T14:15:38;2.23;;;1.03;;
71296;SDS011;59082;50.658;4.608;2023-06-14T14:18:03;1.70;;;0.67;;
71296;SDS011;59082;50.658;4.608;2023-06-14T14:20:30;2.30;;;0.75;;
71296;SDS011;59082;50.658;4.608;2023-06-14T14:22:56;3.72;;;0.85;;
71296;SDS011;59082;50.658;4.608;2023-06-14T14:25:21;2.00;;;0.83;;
71296;SDS011;59082;50.658;4.608;2023-06-14T14:27:47;4.05;;;0.88;;
71296;SDS011;59082;50.658;4.608;2023-06-14T14:30:12;2.60;;;0.87;;
71296;SDS011;59082;50.658;4.608;2023-06-14T14:32:39;1.98;;;0.70;;
71296;SDS011;59082;50.658;4.608;2023-06-14T14:35:05;2.95;;;0.82;;
71296;SDS011;59082;50.658;4.608;2023-06-14T14:37:31;1.73;;;0.50;;
71296;SDS011;59082;50.658;4.608;2023-06-14T14:39:56;4.35;;;0.60;;
71296;SDS011;59082;50.658;4.608;2023-06-14T14:42:21;1.27;;;0.40;;
71296;SDS011;59082;50.658;4.608;2023-06-14T14:44:47;2.53;;;0.80;;
71296;SDS011;59082;50.658;4.608;2023-06-14T14:47:12;2.07;;;0.60;;
71296;SDS011;59082;50.658;4.608;2023-06-14T14:49:38;2.13;;;0.60;;
71296;SDS011;59082;50.658;4.608;2023-06-14T14:52:04;1.87;;;0.50;;
71296;SDS011;59082;50.658;4.608;2023-06-14T14:54:30;2.22;;;0.63;;
71296;SDS011;59082;50.658;4.608;2023-06-14T14:56:55;2.90;;;0.87;;
71296;SDS011;59082;50.658;4.608;2023-06-14T14:59:21;1.80;;;0.60;;
71296;SDS011;59082;50.658;4.608;2023-06-14T15:01:49;2.73;;;0.90;;
71296;SDS011;59082;50.658;4.608;2023-06-14T15:04:16;2.72;;;0.70;;
71296;SDS011;59082;50.658;4.608;2023-06-14T15:06:41;3.20;;;0.70;;
71296;SDS011;59082;50.658;4.608;2023-06-14T15:09:06;4.20;;;1.10;;
71296;SDS011;59082;50.658;4.608;2023-06-14T15:11:32;2.63;;;0.83;;
71296;SDS011;59082;50.658;4.608;2023-06-14T15:13:57;4.27;;;0.70;;
71296;SDS011;59082;50.658;4.608;2023-06-14T15:16:23;3.63;;;0.73;;
71296;SDS011;59082;50.658;4.608;2023-06-14T15:18:48;4.37;;;0.80;;
71296;SDS011;59082;50.658;4.608;2023-06-14T15:21:14;2.60;;;0.80;;
71296;SDS011;59082;50.658;4.608;2023-06-14T15:23:40;3.03;;;0.95;;
71296;SDS011;59082;50.658;4.608;2023-06-14T15:26:05;1.70;;;0.60;;
71296;SDS011;59082;50.658;4.608;2023-06-14T15:28:31;3.37;;;0.57;;
71296;SDS011;59082;50.658;4.608;2023-06-14T15:31:00;3.88;;;1.17;;
71296;SDS011;59082;50.658;4.608;2023-06-14T15:33:25;4.55;;;0.90;;
71296;SDS011;59082;50.658;4.608;2023-06-14T15:35:51;1.40;;;1.00;;
71296;SDS011;59082;50.658;4.608;2023-06-14T15:38:16;1.87;;;1.10;;
71296;SDS011;59082;50.658;4.608;2023-06-14T15:40:41;3.10;;;1.02;;
71296;SDS011;59082;50.658;4.608;2023-06-14T15:43:07;6.40;;;1.00;;
71296;SDS011;59082;50.658;4.608;2023-06-14T15:45:32;4.30;;;1.10;;
71296;SDS011;59082;50.658;4.608;2023-06-14T15:47:58;2.00;;;1.10;;
71296;SDS011;59082;50.658;4.608;2023-06-14T15:50:25;2.13;;;0.95;;
71296;SDS011;59082;50.658;4.608;2023-06-14T15:52:50;4.90;;;1.00;;
71296;SDS011;59082;50.658;4.608;2023-06-14T15:55:15;2.35;;;0.68;;
71296;SDS011;59082;50.658;4.608;2023-06-14T15:57:41;4.70;;;1.13;;
71296;SDS011;59082;50.658;4.608;2023-06-14T16:00:06;2.63;;;0.93;;
71296;SDS011;59082;50.658;4.608;2023-06-14T16:02:32;2.03;;;0.80;;
71296;SDS011;59082;50.658;4.608;2023-06-14T16:04:57;2.53;;;0.80;;
71296;SDS011;59082;50.658;4.608;2023-06-14T16:07:22;2.77;;;0.67;;
71296;SDS011;59082;50.658;4.608;2023-06-14T16:09:48;3.00;;;0.97;;
71296;SDS011;59082;50.658;4.608;2023-06-14T16:12:13;4.17;;;1.03;;
71296;SDS011;59082;50.658;4.608;2023-06-14T16:14:39;2.30;;;1.05;;
71296;SDS011;59082;50.658;4.608;2023-06-14T16:17:05;3.03;;;0.70;;
71296;SDS011;59082;50.658;4.608;2023-06-14T16:19:30;2.88;;;0.93;;
71296;SDS011;59082;50.658;4.608;2023-06-14T16:21:56;4.70;;;1.13;;
71296;SDS011;59082;50.658;4.608;2023-06-14T16:24:21;3.95;;;0.80;;
71296;SDS011;59082;50.658;4.608;2023-06-14T16:26:47;4.13;;;1.00;;
71296;SDS011;59082;50.658;4.608;2023-06-14T16:29:12;3.70;;;1.27;;
71296;SDS011;59082;50.658;4.608;2023-06-14T16:31:39;2.45;;;1.42;;
71296;SDS011;59082;50.658;4.608;2023-06-14T16:34:04;1.63;;;0.67;;
71296;SDS011;59082;50.658;4.608;2023-06-14T16:36:33;2.30;;;0.95;;
71296;SDS011;59082;50.658;4.608;2023-06-14T16:38:58;1.57;;;0.80;;
71296;SDS011;59082;50.658;4.608;2023-06-14T16:41:24;6.10;;;0.90;;
71296;SDS011;59082;50.658;4.608;2023-06-14T16:43:49;4.10;;;1.00;;
71296;SDS011;59082;50.658;4.608;2023-06-14T16:46:15;2.70;;;0.80;;
71296;SDS011;59082;50.658;4.608;2023-06-14T16:48:52;3.78;;;1.38;;
71296;SDS011;59082;50.658;4.608;2023-06-14T16:51:17;4.20;;;0.93;;
71296;SDS011;59082;50.658;4.608;2023-06-14T16:53:43;3.67;;;0.80;;
71296;SDS011;59082;50.658;4.608;2023-06-14T16:56:08;3.92;;;0.80;;
71296;SDS011;59082;50.658;4.608;2023-06-14T16:58:33;2.17;;;1.00;;
71296;SDS011;59082;50.658;4.608;2023-06-14T17:00:58;3.37;;;1.20;;
71296;SDS011;59082;50.658;4.608;2023-06-14T17:03:24;2.90;;;0.77;;
71296;SDS011;59082;50.658;4.608;2023-06-14T17:05:57;2.28;;;0.88;;
71296;SDS011;59082;50.658;4.608;2023-06-14T17:08:23;1.63;;;1.05;;
71296;SDS011;59082;50.658;4.608;2023-06-14T17:10:49;2.50;;;1.20;;
71296;SDS011;59082;50.658;4.608;2023-06-14T17:13:14;2.15;;;1.02;;
71296;SDS011;59082;50.658;4.608;2023-06-14T17:15:40;2.05;;;1.08;;
71296;SDS011;59082;50.658;4.608;2023-06-14T17:18:06;1.37;;;1.10;;
71296;SDS011;59082;50.658;4.608;2023-06-14T17:20:31;2.43;;;1.20;;
71296;SDS011;59082;50.658;4.608;2023-06-14T17:22:57;1.63;;;0.90;;
71296;SDS011;59082;50.658;4.608;2023-06-14T17:25:22;6.03;;;1.20;;
71296;SDS011;59082;50.658;4.608;2023-06-14T17:27:48;1.30;;;0.70;;
71296;SDS011;59082;50.658;4.608;2023-06-14T17:30:14;1.45;;;0.93;;
71296;SDS011;59082;50.658;4.608;2023-06-14T17:32:40;4.30;;;1.17;;
71296;SDS011;59082;50.658;4.608;2023-06-14T17:35:06;3.80;;;0.60;;
71296;SDS011;59082;50.658;4.608;2023-06-14T17:37:31;4.67;;;0.80;;
71296;SDS011;59082;50.658;4.608;2023-06-14T17:39:56;3.10;;;0.90;;
71296;SDS011;59082;50.658;4.608;2023-06-14T17:42:22;3.40;;;0.93;;
71296;SDS011;59082;50.658;4.608;2023-06-14T17:44:47;4.77;;;1.00;;
71296;SDS011;59082;50.658;4.608;2023-06-14T17:47:16;2.13;;;0.75;;
71296;SDS011;59082;50.658;4.608;2023-06-14T17:49:41;3.00;;;1.10;;
71296;SDS011;59082;50.658;4.608;2023-06-14T17:52:07;2.70;;;0.50;;
71296;SDS011;59082;50.658;4.608;2023-06-14T17:54:32;1.10;;;0.80;;
71296;SDS011;59082;50.658;4.608;2023-06-14T17:56:58;3.30;;;0.77;;
71296;SDS011;59082;50.658;4.608;2023-06-14T17:59:23;2.83;;;0.80;;
71296;SDS011;59082;50.658;4.608;2023-06-14T18:01:48;4.03;;;0.70;;
71296;SDS011;59082;50.658;4.608;2023-06-14T18:04:14;1.30;;;0.53;;
71296;SDS011;59082;50.658;4.608;2023-06-14T18:06:39;3.17;;;0.70;;
71296;SDS011;59082;50.658;4.608;2023-06-14T18:09:05;1.50;;;0.70;;
71296;SDS011;59082;50.658;4.608;2023-06-14T18:11:30;2.47;;;0.77;;
71296;SDS011;59082;50.658;4.608;2023-06-14T18:13:57;1.30;;;0.55;;
71296;SDS011;59082;50.658;4.608;2023-06-14T18:16:23;2.97;;;0.73;;
71296;SDS011;59082;50.658;4.608;2023-06-14T18:18:48;1.93;;;0.50;;
71296;SDS011;59082;50.658;4.608;2023-06-14T18:21:14;1.38;;;0.47;;
71296;SDS011;59082;50.658;4.608;2023-06-14T18:23:40;1.73;;;0.93;;
71296;SDS011;59082;50.658;4.608;2023-06-14T18:26:05;4.70;;;1.23;;
71296;SDS011;59082;50.658;4.608;2023-06-14T18:28:30;7.90;;;1.67;;
71296;SDS011;59082;50.658;4.608;2023-06-14T18:30:56;2.63;;;0.63;;
71296;SDS011;59082;50.658;4.608;2023-06-14T18:33:21;2.83;;;0.70;;
71296;SDS011;59082;50.658;4.608;2023-06-14T18:35:46;1.80;;;0.97;;
71296;SDS011;59082;50.658;4.608;2023-06-14T18:38:12;1.40;;;0.60;;
71296;SDS011;59082;50.658;4.608;2023-06-14T18:40:37;3.73;;;1.23;;
71296;SDS011;59082;50.658;4.608;2023-06-14T18:43:02;1.33;;;0.83;;
71296;SDS011;59082;50.658;4.608;2023-06-14T18:45:29;2.00;;;0.77;;
71296;SDS011;59082;50.658;4.608;2023-06-14T18:47:55;2.97;;;0.73;;
71296;SDS011;59082;50.658;4.608;2023-06-14T18:50:20;1.92;;;0.90;;
71296;SDS011;59082;50.658;4.608;2023-06-14T18:52:46;2.23;;;0.60;;
71296;SDS011;59082;50.658;4.608;2023-06-14T18:55:11;1.80;;;0.90;;